sensor_id;sensor_type;location;lat;lon;timestamp;pressure;altitude;pressure_sealevel;temperature;humidity
68873;BME280;55907;50.806;12.882;2023-01-30T00:02:59;974.2;;;-2.6;75.9
68873;BME280;55907;50.806;12.882;2023-01-30T00:06:00;974.1;;;-2.5;75.6
68873;BME280;55907;50.806;12.882;2023-01-30T00:12:04;974.2;;;-2.5;75.8
68873;BME280;55907;50.806;12.882;2023-01-30T00:15:06;974.1;;;-2.4;75.9
68873;BME280;55907;50.806;12.882;2023-01-30T00:18:07;974.2;;;-2.3;75.7
68873;BME280;55907;50.806;12.882;2023-01-30T00:21:10;974.2;;;-2.2;75.6
68873;BME280;55907;50.806;12.882;2023-01-30T00:24:10;974.2;;;-2.2;75.7
68873;BME280;55907;50.806;12.882;2023-01-30T00:27:11;974.1;;;-2.2;76.0
68873;BME280;55907;50.806;12.882;2023-01-30T00:30:14;974.0;;;-2.1;76.0
68873;BME280;55907;50.806;12.882;2023-01-30T00:33:15;973.9;;;-2.1;75.8
68873;BME280;55907;50.806;12.882;2023-01-30T00:36:17;973.9;;;-2.1;75.7
68873;BME280;55907;50.806;12.882;2023-01-30T00:39:18;973.8;;;-2.0;75.8
68873;BME280;55907;50.806;12.882;2023-01-30T00:42:19;973.8;;;-2.0;75.8
68873;BME280;55907;50.806;12.882;2023-01-30T00:45:21;973.8;;;-2.0;76.1
68873;BME280;55907;50.806;12.882;2023-01-30T00:48:23;973.8;;;-1.9;76.3
68873;BME280;55907;50.806;12.882;2023-01-30T00:51:25;973.8;;;-1.9;76.5
68873;BME280;55907;50.806;12.882;2023-01-30T00:54:26;973.7;;;-2.0;76.8
68873;BME280;55907;50.806;12.882;2023-01-30T00:57:28;973.7;;;-2.0;77.1
68873;BME280;55907;50.806;12.882;2023-01-30T01:00:30;973.7;;;-2.0;77.1
68873;BME280;55907;50.806;12.882;2023-01-30T01:03:09;unavailable;;;unavailable;unavailable
68873;BME280;55907;50.806;12.882;2023-01-30T01:03:10;973.7;;;-2.0;77.3
68873;BME280;55907;50.806;12.882;2023-01-30T01:03:31;973.7;;;-1.9;77.3
68873;BME280;55907;50.806;12.882;2023-01-30T01:05:57;unavailable;;;unavailable;unavailable
68873;BME280;55907;50.806;12.882;2023-01-30T01:06:04;973.8;;;-1.8;77.2
68873;BME280;55907;50.806;12.882;2023-01-30T01:06:33;973.8;;;-1.7;77.1
68873;BME280;55907;50.806;12.882;2023-01-30T01:07:53;unavailable;;;unavailable;unavailable
68873;BME280;55907;50.806;12.882;2023-01-30T01:07:55;973.7;;;-1.7;76.7
68873;BME280;55907;50.806;12.882;2023-01-30T01:09:34;973.7;;;-1.6;76.7
68873;BME280;55907;50.806;12.882;2023-01-30T01:11:03;unavailable;;;unavailable;unavailable
68873;BME280;55907;50.806;12.882;2023-01-30T01:11:06;973.8;;;-1.6;76.3
68873;BME280;55907;50.806;12.882;2023-01-30T01:12:36;973.6;;;-1.5;76.3
68873;BME280;55907;50.806;12.882;2023-01-30T01:14:55;unavailable;;;unavailable;unavailable
68873;BME280;55907;50.806;12.882;2023-01-30T01:15:00;973.6;;;-1.5;75.9
68873;BME280;55907;50.806;12.882;2023-01-30T01:15:38;973.6;;;-1.4;76.2
68873;BME280;55907;50.806;12.882;2023-01-30T01:18:39;973.4;;;-1.2;75.6
68873;BME280;55907;50.806;12.882;2023-01-30T01:21:40;973.4;;;-1.1;76.2
68873;BME280;55907;50.806;12.882;2023-01-30T01:23:17;unavailable;;;unavailable;unavailable
68873;BME280;55907;50.806;12.882;2023-01-30T01:23:19;973.4;;;-1.1;75.6
68873;BME280;55907;50.806;12.882;2023-01-30T01:24:42;973.3;;;-1.1;76.0
68873;BME280;55907;50.806;12.882;2023-01-30T01:30:45;973.1;;;-1.2;77.0
68873;BME280;55907;50.806;12.882;2023-01-30T01:33:47;972.9;;;-1.2;77.2
68873;BME280;55907;50.806;12.882;2023-01-30T01:36:48;972.8;;;-1.2;77.2
68873;BME280;55907;50.806;12.882;2023-01-30T01:39:50;972.8;;;-1.3;77.2
68873;BME280;55907;50.806;12.882;2023-01-30T01:42:51;972.6;;;-1.4;77.3
68873;BME280;55907;50.806;12.882;2023-01-30T01:45:56;972.6;;;-1.4;77.6
68873;BME280;55907;50.806;12.882;2023-01-30T01:48:57;972.4;;;-1.4;77.6
68873;BME280;55907;50.806;12.882;2023-01-30T01:52:00;972.4;;;-1.5;77.7
68873;BME280;55907;50.806;12.882;2023-01-30T01:55:00;972.4;;;-1.4;78.0
68873;BME280;55907;50.806;12.882;2023-01-30T01:58:03;972.2;;;-1.4;77.8
68873;BME280;55907;50.806;12.882;2023-01-30T02:01:01;972.0;;;-1.4;77.9
68873;BME280;55907;50.806;12.882;2023-01-30T02:04:05;971.9;;;-1.3;78.1
68873;BME280;55907;50.806;12.882;2023-01-30T02:07:05;972.0;;;-1.4;78.8
68873;BME280;55907;50.806;12.882;2023-01-30T02:10:09;972.0;;;-1.4;80.8
68873;BME280;55907;50.806;12.882;2023-01-30T02:13:07;972.0;;;-1.4;80.0
68873;BME280;55907;50.806;12.882;2023-01-30T02:16:09;972.0;;;-1.3;79.9
68873;BME280;55907;50.806;12.882;2023-01-30T02:19:21;971.8;;;-1.2;79.6
68873;BME280;55907;50.806;12.882;2023-01-30T02:22:23;971.7;;;-1.2;79.6
68873;BME280;55907;50.806;12.882;2023-01-30T02:25:28;971.6;;;-1.1;79.2
68873;BME280;55907;50.806;12.882;2023-01-30T02:28:32;971.6;;;-1.1;79.2
68873;BME280;55907;50.806;12.882;2023-01-30T02:31:24;971.8;;;-1.1;79.2
68873;BME280;55907;50.806;12.882;2023-01-30T02:34:28;971.7;;;-1.1;79.1
68873;BME280;55907;50.806;12.882;2023-01-30T02:37:28;971.6;;;-1.0;78.9
68873;BME280;55907;50.806;12.882;2023-01-30T02:40:32;971.7;;;-0.9;78.8
68873;BME280;55907;50.806;12.882;2023-01-30T02:43:33;971.8;;;-0.9;78.9
68873;BME280;55907;50.806;12.882;2023-01-30T02:46:30;971.8;;;-0.9;79.0
68873;BME280;55907;50.806;12.882;2023-01-30T02:49:30;971.8;;;-0.8;78.8
68873;BME280;55907;50.806;12.882;2023-01-30T02:52:29;971.8;;;-0.7;78.7
68873;BME280;55907;50.806;12.882;2023-01-30T02:55:30;971.6;;;-0.6;78.6
68873;BME280;55907;50.806;12.882;2023-01-30T02:58:35;971.5;;;-0.6;78.4
68873;BME280;55907;50.806;12.882;2023-01-30T03:01:46;971.3;;;-0.6;78.5
68873;BME280;55907;50.806;12.882;2023-01-30T03:04:44;971.4;;;-0.6;78.3
68873;BME280;55907;50.806;12.882;2023-01-30T03:07:44;971.3;;;-0.6;78.3
68873;BME280;55907;50.806;12.882;2023-01-30T03:10:44;971.2;;;-0.5;78.3
68873;BME280;55907;50.806;12.882;2023-01-30T03:13:48;971.1;;;-0.5;78.4
68873;BME280;55907;50.806;12.882;2023-01-30T03:16:42;971.2;;;-0.5;78.6
68873;BME280;55907;50.806;12.882;2023-01-30T03:19:43;971.1;;;-0.5;78.5
68873;BME280;55907;50.806;12.882;2023-01-30T03:22:45;971.0;;;-0.5;78.3
68873;BME280;55907;50.806;12.882;2023-01-30T03:25:47;970.8;;;-0.5;78.5
68873;BME280;55907;50.806;12.882;2023-01-30T03:28:49;970.8;;;-0.4;78.6
68873;BME280;55907;50.806;12.882;2023-01-30T03:31:49;970.8;;;-0.4;78.6
68873;BME280;55907;50.806;12.882;2023-01-30T03:34:51;970.6;;;-0.5;78.7
68873;BME280;55907;50.806;12.882;2023-01-30T03:37:53;970.7;;;-0.4;78.6
68873;BME280;55907;50.806;12.882;2023-01-30T03:40:54;970.7;;;-0.4;78.6
68873;BME280;55907;50.806;12.882;2023-01-30T03:43:55;970.5;;;-0.3;78.4
68873;BME280;55907;50.806;12.882;2023-01-30T03:46:57;970.4;;;-0.4;78.7
68873;BME280;55907;50.806;12.882;2023-01-30T03:49:58;970.4;;;-0.4;78.8
68873;BME280;55907;50.806;12.882;2023-01-30T03:53:00;970.5;;;-0.4;78.9
68873;BME280;55907;50.806;12.882;2023-01-30T03:59:03;970.4;;;-0.2;79.0
68873;BME280;55907;50.806;12.882;2023-01-30T04:02:05;970.5;;;-0.2;78.9
68873;BME280;55907;50.806;12.882;2023-01-30T04:05:07;970.5;;;-0.2;79.4
68873;BME280;55907;50.806;12.882;2023-01-30T04:08:08;970.4;;;-0.2;79.3
68873;BME280;55907;50.806;12.882;2023-01-30T04:11:10;970.3;;;-0.1;79.2
68873;BME280;55907;50.806;12.882;2023-01-30T04:14:11;970.3;;;-0.1;79.1
68873;BME280;55907;50.806;12.882;2023-01-30T04:17:13;970.3;;;-0.1;79.0
68873;BME280;55907;50.806;12.882;2023-01-30T04:20:15;970.2;;;-0.1;78.8
68873;BME280;55907;50.806;12.882;2023-01-30T04:23:16;970.2;;;0.1;78.1
68873;BME280;55907;50.806;12.882;2023-01-30T04:26:18;970.2;;;0.1;77.9
68873;BME280;55907;50.806;12.882;2023-01-30T04:29:19;970.0;;;0.1;77.9
68873;BME280;55907;50.806;12.882;2023-01-30T04:32:21;970.1;;;0.1;78.0
68873;BME280;55907;50.806;12.882;2023-01-30T04:35:22;970.1;;;0.1;77.9
68873;BME280;55907;50.806;12.882;2023-01-30T04:38:25;969.9;;;0.1;78.0
68873;BME280;55907;50.806;12.882;2023-01-30T04:41:26;969.8;;;0.2;78.0
68873;BME280;55907;50.806;12.882;2023-01-30T04:44:27;969.8;;;0.2;78.0
68873;BME280;55907;50.806;12.882;2023-01-30T04:47:29;969.9;;;0.1;78.3
68873;BME280;55907;50.806;12.882;2023-01-30T04:50:31;969.6;;;0.1;78.5
68873;BME280;55907;50.806;12.882;2023-01-30T04:53:32;969.6;;;0.2;78.4
68873;BME280;55907;50.806;12.882;2023-01-30T04:56:34;969.3;;;0.2;78.2
68873;BME280;55907;50.806;12.882;2023-01-30T04:59:35;969.4;;;0.2;78.3
68873;BME280;55907;50.806;12.882;2023-01-30T05:02:37;969.6;;;0.2;78.4
68873;BME280;55907;50.806;12.882;2023-01-30T05:05:38;969.5;;;0.2;78.7
68873;BME280;55907;50.806;12.882;2023-01-30T05:08:40;969.5;;;0.2;78.9
68873;BME280;55907;50.806;12.882;2023-01-30T05:11:42;969.4;;;0.2;78.7
68873;BME280;55907;50.806;12.882;2023-01-30T05:14:43;969.4;;;0.2;78.7
68873;BME280;55907;50.806;12.882;2023-01-30T05:17:45;969.3;;;0.3;78.7
68873;BME280;55907;50.806;12.882;2023-01-30T05:20:46;969.1;;;0.4;78.7
68873;BME280;55907;50.806;12.882;2023-01-30T05:23:49;969.1;;;0.4;78.7
68873;BME280;55907;50.806;12.882;2023-01-30T05:29:51;968.8;;;0.4;80.5
68873;BME280;55907;50.806;12.882;2023-01-30T05:32:53;968.8;;;0.3;80.4
68873;BME280;55907;50.806;12.882;2023-01-30T05:35:54;968.7;;;0.3;79.7
68873;BME280;55907;50.806;12.882;2023-01-30T05:38:56;968.7;;;0.3;79.5
68873;BME280;55907;50.806;12.882;2023-01-30T05:41:57;968.7;;;0.4;79.7
68873;BME280;55907;50.806;12.882;2023-01-30T05:44:59;968.5;;;0.4;79.9
68873;BME280;55907;50.806;12.882;2023-01-30T05:48:01;968.6;;;0.4;80.0
68873;BME280;55907;50.806;12.882;2023-01-30T05:51:02;968.6;;;0.4;81.1
68873;BME280;55907;50.806;12.882;2023-01-30T05:54:04;968.6;;;0.3;81.8
68873;BME280;55907;50.806;12.882;2023-01-30T05:57:05;968.5;;;0.4;82.3
68873;BME280;55907;50.806;12.882;2023-01-30T06:00:08;968.5;;;0.4;81.9
68873;BME280;55907;50.806;12.882;2023-01-30T06:03:09;968.5;;;0.5;81.9
68873;BME280;55907;50.806;12.882;2023-01-30T06:06:11;968.5;;;0.5;82.4
68873;BME280;55907;50.806;12.882;2023-01-30T06:09:12;968.3;;;0.5;83.8
68873;BME280;55907;50.806;12.882;2023-01-30T06:12:13;968.4;;;0.5;83.7
68873;BME280;55907;50.806;12.882;2023-01-30T06:15:16;968.3;;;0.5;83.1
68873;BME280;55907;50.806;12.882;2023-01-30T06:18:17;968.2;;;0.5;83.1
68873;BME280;55907;50.806;12.882;2023-01-30T06:21:18;968.1;;;0.5;82.9
68873;BME280;55907;50.806;12.882;2023-01-30T06:24:20;968.1;;;0.5;83.0
68873;BME280;55907;50.806;12.882;2023-01-30T06:27:21;968.1;;;0.6;82.6
68873;BME280;55907;50.806;12.882;2023-01-30T06:30:23;968.1;;;0.7;82.2
68873;BME280;55907;50.806;12.882;2023-01-30T06:33:24;968.0;;;0.7;82.7
68873;BME280;55907;50.806;12.882;2023-01-30T06:36:26;968.0;;;0.6;82.9
68873;BME280;55907;50.806;12.882;2023-01-30T06:39:28;968.0;;;0.7;82.9
68873;BME280;55907;50.806;12.882;2023-01-30T06:42:29;967.9;;;0.7;82.9
68873;BME280;55907;50.806;12.882;2023-01-30T06:45:31;968.2;;;0.8;83.1
68873;BME280;55907;50.806;12.882;2023-01-30T06:48:33;968.1;;;0.9;82.5
68873;BME280;55907;50.806;12.882;2023-01-30T06:51:34;968.1;;;0.8;82.5
68873;BME280;55907;50.806;12.882;2023-01-30T06:54:36;968.2;;;0.8;82.5
68873;BME280;55907;50.806;12.882;2023-01-30T06:57:37;968.4;;;0.9;83.0
68873;BME280;55907;50.806;12.882;2023-01-30T07:00:40;968.2;;;1.0;82.7
68873;BME280;55907;50.806;12.882;2023-01-30T07:03:40;968.2;;;1.1;82.3
68873;BME280;55907;50.806;12.882;2023-01-30T07:06:42;968.1;;;1.2;81.8
68873;BME280;55907;50.806;12.882;2023-01-30T07:09:43;968.1;;;1.2;81.4
68873;BME280;55907;50.806;12.882;2023-01-30T07:12:46;968.0;;;1.1;82.0
68873;BME280;55907;50.806;12.882;2023-01-30T07:15:47;968.0;;;1.1;82.6
68873;BME280;55907;50.806;12.882;2023-01-30T07:18:48;968.1;;;1.2;82.4
68873;BME280;55907;50.806;12.882;2023-01-30T07:24:51;968.1;;;1.3;81.6
68873;BME280;55907;50.806;12.882;2023-01-30T07:27:56;968.1;;;1.4;82.0
68873;BME280;55907;50.806;12.882;2023-01-30T07:30:57;968.0;;;1.3;83.0
68873;BME280;55907;50.806;12.882;2023-01-30T07:36:58;968.0;;;1.3;81.7
68873;BME280;55907;50.806;12.882;2023-01-30T07:39:59;968.0;;;1.4;81.5
68873;BME280;55907;50.806;12.882;2023-01-30T07:43:03;967.9;;;1.4;81.4
68873;BME280;55907;50.806;12.882;2023-01-30T07:46:02;968.0;;;1.4;81.2
68873;BME280;55907;50.806;12.882;2023-01-30T07:49:05;968.1;;;1.4;81.5
68873;BME280;55907;50.806;12.882;2023-01-30T07:55:07;967.9;;;1.3;84.2
68873;BME280;55907;50.806;12.882;2023-01-30T07:58:10;968.1;;;1.2;86.9
68873;BME280;55907;50.806;12.882;2023-01-30T08:01:10;968.0;;;1.2;88.7
68873;BME280;55907;50.806;12.882;2023-01-30T08:04:12;967.9;;;1.2;88.9
68873;BME280;55907;50.806;12.882;2023-01-30T08:07:13;967.8;;;1.1;92.6
68873;BME280;55907;50.806;12.882;2023-01-30T08:10:15;968.0;;;0.8;100.0
68873;BME280;55907;50.806;12.882;2023-01-30T08:16:18;967.9;;;0.6;100.0
68873;BME280;55907;50.806;12.882;2023-01-30T08:19:20;968.0;;;0.7;100.0
68873;BME280;55907;50.806;12.882;2023-01-30T08:22:21;968.0;;;0.8;100.0
68873;BME280;55907;50.806;12.882;2023-01-30T08:25:23;968.1;;;0.9;100.0
68873;BME280;55907;50.806;12.882;2023-01-30T08:28:26;968.1;;;1.0;100.0
68873;BME280;55907;50.806;12.882;2023-01-30T08:31:26;968.0;;;1.0;100.0
68873;BME280;55907;50.806;12.882;2023-01-30T08:34:28;968.0;;;1.0;100.0
68873;BME280;55907;50.806;12.882;2023-01-30T08:37:29;968.0;;;0.9;100.0
68873;BME280;55907;50.806;12.882;2023-01-30T08:40:31;968.0;;;0.9;100.0
68873;BME280;55907;50.806;12.882;2023-01-30T08:43:32;968.1;;;1.2;100.0
68873;BME280;55907;50.806;12.882;2023-01-30T08:43:57;unavailable;;;unavailable;unavailable
68873;BME280;55907;50.806;12.882;2023-01-30T08:46:34;968.1;;;1.3;100.0
68873;BME280;55907;50.806;12.882;2023-01-30T08:49:35;968.1;;;1.3;100.0
68873;BME280;55907;50.806;12.882;2023-01-30T08:52:37;968.1;;;1.3;100.0
68873;BME280;55907;50.806;12.882;2023-01-30T08:55:38;968.1;;;1.3;100.0
68873;BME280;55907;50.806;12.882;2023-01-30T08:58:40;968.1;;;1.3;100.0
68873;BME280;55907;50.806;12.882;2023-01-30T09:01:41;968.1;;;1.3;100.0
68873;BME280;55907;50.806;12.882;2023-01-30T09:04:43;968.1;;;1.3;100.0
68873;BME280;55907;50.806;12.882;2023-01-30T09:07:45;968.1;;;1.3;100.0
68873;BME280;55907;50.806;12.882;2023-01-30T09:10:46;968.1;;;1.3;100.0
68873;BME280;55907;50.806;12.882;2023-01-30T09:13:48;968.1;;;1.3;100.0
68873;BME280;55907;50.806;12.882;2023-01-30T09:16:50;968.1;;;1.3;100.0
68873;BME280;55907;50.806;12.882;2023-01-30T09:19:51;968.1;;;1.3;100.0
68873;BME280;55907;50.806;12.882;2023-01-30T09:22:53;968.1;;;1.3;100.0
68873;BME280;55907;50.806;12.882;2023-01-30T09:25:54;968.1;;;1.3;100.0
68873;BME280;55907;50.806;12.882;2023-01-30T09:28:56;968.1;;;1.3;100.0
68873;BME280;55907;50.806;12.882;2023-01-30T09:31:57;968.1;;;1.3;100.0
68873;BME280;55907;50.806;12.882;2023-01-30T09:34:59;968.1;;;1.3;100.0
68873;BME280;55907;50.806;12.882;2023-01-30T09:38:00;968.1;;;1.3;100.0
68873;BME280;55907;50.806;12.882;2023-01-30T09:41:20;968.1;;;1.3;100.0
68873;BME280;55907;50.806;12.882;2023-01-30T09:44:16;968.1;;;1.3;100.0
68873;BME280;55907;50.806;12.882;2023-01-30T09:47:09;968.1;;;1.3;100.0
68873;BME280;55907;50.806;12.882;2023-01-30T09:50:18;968.1;;;1.3;100.0
68873;BME280;55907;50.806;12.882;2023-01-30T09:53:13;968.1;;;1.3;100.0
68873;BME280;55907;50.806;12.882;2023-01-30T09:56:09;968.1;;;1.3;100.0
68873;BME280;55907;50.806;12.882;2023-01-30T09:59:18;968.1;;;1.3;100.0
68873;BME280;55907;50.806;12.882;2023-01-30T10:02:34;968.1;;;1.3;100.0
68873;BME280;55907;50.806;12.882;2023-01-30T10:05:15;968.1;;;1.3;100.0
68873;BME280;55907;50.806;12.882;2023-01-30T10:08:32;968.1;;;1.3;100.0
68873;BME280;55907;50.806;12.882;2023-01-30T10:11:24;968.1;;;1.3;100.0
68873;BME280;55907;50.806;12.882;2023-01-30T10:17:30;968.1;;;1.3;100.0
68873;BME280;55907;50.806;12.882;2023-01-30T10:20:29;968.1;;;1.3;100.0
68873;BME280;55907;50.806;12.882;2023-01-30T10:23:33;968.1;;;1.3;100.0
68873;BME280;55907;50.806;12.882;2023-01-30T10:26:27;968.1;;;1.3;100.0
68873;BME280;55907;50.806;12.882;2023-01-30T10:29:29;968.1;;;1.3;100.0
68873;BME280;55907;50.806;12.882;2023-01-30T10:32:30;967.7;;;2.0;93.8
68873;BME280;55907;50.806;12.882;2023-01-30T10:35:32;967.7;;;2.0;93.8
68873;BME280;55907;50.806;12.882;2023-01-30T10:38:34;967.7;;;2.0;93.8
68873;BME280;55907;50.806;12.882;2023-01-30T10:41:35;967.7;;;2.0;93.8
68873;BME280;55907;50.806;12.882;2023-01-30T10:44:34;967.7;;;2.0;93.8
68873;BME280;55907;50.806;12.882;2023-01-30T10:47:42;967.7;;;2.0;93.8
68873;BME280;55907;50.806;12.882;2023-01-30T10:50:45;967.7;;;2.0;93.8
68873;BME280;55907;50.806;12.882;2023-01-30T10:56:46;967.7;;;2.0;93.8
68873;BME280;55907;50.806;12.882;2023-01-30T10:59:49;967.7;;;2.0;93.8
68873;BME280;55907;50.806;12.882;2023-01-30T11:02:51;967.7;;;2.0;93.8
68873;BME280;55907;50.806;12.882;2023-01-30T11:05:47;967.5;;;2.1;88.1
68873;BME280;55907;50.806;12.882;2023-01-30T11:08:47;967.6;;;2.0;91.8
68873;BME280;55907;50.806;12.882;2023-01-30T11:11:50;967.5;;;2.0;92.0
68873;BME280;55907;50.806;12.882;2023-01-30T11:14:52;967.6;;;2.0;92.7
68873;BME280;55907;50.806;12.882;2023-01-30T11:18:03;967.6;;;2.0;92.8
68873;BME280;55907;50.806;12.882;2023-01-30T11:21:01;967.4;;;1.9;94.2
68873;BME280;55907;50.806;12.882;2023-01-30T11:23:55;967.5;;;1.9;94.5
68873;BME280;55907;50.806;12.882;2023-01-30T11:33:10;967.4;;;1.9;97.4
68873;BME280;55907;50.806;12.882;2023-01-30T11:36:03;967.4;;;1.9;95.8
68873;BME280;55907;50.806;12.882;2023-01-30T11:39:05;967.5;;;1.9;95.6
68873;BME280;55907;50.806;12.882;2023-01-30T11:42:09;967.6;;;1.9;95.7
68873;BME280;55907;50.806;12.882;2023-01-30T11:45:11;967.5;;;1.8;94.9
68873;BME280;55907;50.806;12.882;2023-01-30T11:48:13;967.5;;;1.9;95.8
68873;BME280;55907;50.806;12.882;2023-01-30T11:51:09;967.5;;;1.9;95.1
68873;BME280;55907;50.806;12.882;2023-01-30T11:53:01;unavailable;;;unavailable;unavailable
68873;BME280;55907;50.806;12.882;2023-01-30T11:53:04;967.5;;;2.0;94.4
68873;BME280;55907;50.806;12.882;2023-01-30T11:54:13;967.6;;;2.0;94.5
68873;BME280;55907;50.806;12.882;2023-01-30T11:55:53;967.5;;;2.1;93.7
68873;BME280;55907;50.806;12.882;2023-01-30T11:56:37;967.6;;;2.2;93.7
68873;BME280;55907;50.806;12.882;2023-01-30T11:57:13;967.6;;;2.2;93.7
68873;BME280;55907;50.806;12.882;2023-01-30T12:00:16;967.5;;;2.3;92.4
68873;BME280;55907;50.806;12.882;2023-01-30T12:02:41;967.5;;;2.3;92.1
68873;BME280;55907;50.806;12.882;2023-01-30T12:03:17;967.5;;;2.3;92.1
68873;BME280;55907;50.806;12.882;2023-01-30T12:06:22;967.4;;;2.6;91.3
68873;BME280;55907;50.806;12.882;2023-01-30T12:09:30;967.4;;;2.6;90.1
68873;BME280;55907;50.806;12.882;2023-01-30T12:12:29;967.3;;;2.8;89.2
68873;BME280;55907;50.806;12.882;2023-01-30T12:15:24;967.3;;;2.8;88.5
68873;BME280;55907;50.806;12.882;2023-01-30T12:18:28;967.3;;;2.9;87.8
68873;BME280;55907;50.806;12.882;2023-01-30T12:21:33;967.3;;;3.0;86.7
68873;BME280;55907;50.806;12.882;2023-01-30T12:24:30;967.3;;;3.0;86.1
68873;BME280;55907;50.806;12.882;2023-01-30T12:27:42;967.2;;;3.0;86.3
68873;BME280;55907;50.806;12.882;2023-01-30T12:30:33;967.2;;;3.2;85.5
68873;BME280;55907;50.806;12.882;2023-01-30T12:33:32;967.1;;;3.3;84.6
68873;BME280;55907;50.806;12.882;2023-01-30T12:36:37;967.0;;;3.3;84.0
68873;BME280;55907;50.806;12.882;2023-01-30T12:39:44;967.0;;;3.2;84.3
68873;BME280;55907;50.806;12.882;2023-01-30T12:42:46;966.9;;;3.0;85.0
68873;BME280;55907;50.806;12.882;2023-01-30T12:45:41;967.2;;;3.0;85.4
68873;BME280;55907;50.806;12.882;2023-01-30T12:48:50;967.0;;;2.8;85.6
68873;BME280;55907;50.806;12.882;2023-01-30T12:51:48;966.9;;;2.8;85.5
68873;BME280;55907;50.806;12.882;2023-01-30T12:57:46;966.8;;;2.8;85.6
68873;BME280;55907;50.806;12.882;2023-01-30T13:00:53;966.8;;;2.8;85.2
68873;BME280;55907;50.806;12.882;2023-01-30T13:03:52;966.8;;;2.9;85.1
68873;BME280;55907;50.806;12.882;2023-01-30T13:06:59;966.8;;;2.9;85.0
68873;BME280;55907;50.806;12.882;2023-01-30T13:09:53;966.8;;;2.8;85.2
68873;BME280;55907;50.806;12.882;2023-01-30T13:13:01;966.9;;;2.8;85.2
68873;BME280;55907;50.806;12.882;2023-01-30T13:15:57;966.9;;;3.0;84.4
68873;BME280;55907;50.806;12.882;2023-01-30T13:18:56;966.9;;;3.0;83.9
68873;BME280;55907;50.806;12.882;2023-01-30T13:22:00;966.9;;;3.0;83.6
68873;BME280;55907;50.806;12.882;2023-01-30T13:28:02;966.9;;;2.8;84.7
68873;BME280;55907;50.806;12.882;2023-01-30T13:31:01;966.9;;;2.7;85.1
68873;BME280;55907;50.806;12.882;2023-01-30T13:34:04;967.0;;;2.8;85.0
68873;BME280;55907;50.806;12.882;2023-01-30T13:37:07;967.1;;;2.7;85.1
68873;BME280;55907;50.806;12.882;2023-01-30T13:40:14;966.9;;;2.6;85.4
68873;BME280;55907;50.806;12.882;2023-01-30T13:43:12;967.0;;;2.6;85.7
68873;BME280;55907;50.806;12.882;2023-01-30T13:49:12;967.1;;;2.7;85.4
68873;BME280;55907;50.806;12.882;2023-01-30T13:52:16;967.1;;;2.7;85.3
68873;BME280;55907;50.806;12.882;2023-01-30T13:55:23;967.0;;;2.8;84.5
68873;BME280;55907;50.806;12.882;2023-01-30T13:58:30;967.0;;;2.8;84.3
68873;BME280;55907;50.806;12.882;2023-01-30T14:01:15;967.1;;;2.9;84.3
68873;BME280;55907;50.806;12.882;2023-01-30T14:07:23;967.0;;;2.9;83.7
68873;BME280;55907;50.806;12.882;2023-01-30T14:10:20;967.0;;;2.8;84.1
68873;BME280;55907;50.806;12.882;2023-01-30T14:13:22;966.9;;;2.8;84.1
68873;BME280;55907;50.806;12.882;2023-01-30T14:16:23;967.0;;;2.8;83.8
68873;BME280;55907;50.806;12.882;2023-01-30T14:19:31;967.0;;;2.9;83.6
68873;BME280;55907;50.806;12.882;2023-01-30T14:22:30;967.0;;;2.9;83.3
68873;BME280;55907;50.806;12.882;2023-01-30T14:28:44;967.1;;;2.9;83.3
68873;BME280;55907;50.806;12.882;2023-01-30T14:31:44;967.0;;;2.9;83.1
68873;BME280;55907;50.806;12.882;2023-01-30T14:34:41;967.2;;;2.9;83.1
68873;BME280;55907;50.806;12.882;2023-01-30T14:37:44;967.1;;;2.9;83.1
68873;BME280;55907;50.806;12.882;2023-01-30T14:40:38;967.1;;;2.9;83.2
68873;BME280;55907;50.806;12.882;2023-01-30T14:46:41;967.1;;;2.9;83.1
68873;BME280;55907;50.806;12.882;2023-01-30T14:49:42;967.2;;;2.9;83.2
68873;BME280;55907;50.806;12.882;2023-01-30T14:52:42;967.3;;;2.9;83.3
68873;BME280;55907;50.806;12.882;2023-01-30T14:55:43;967.2;;;2.9;83.3
68873;BME280;55907;50.806;12.882;2023-01-30T14:58:58;967.3;;;2.8;83.4
68873;BME280;55907;50.806;12.882;2023-01-30T15:01:58;967.2;;;2.7;83.4
68873;BME280;55907;50.806;12.882;2023-01-30T15:04:55;967.3;;;2.7;83.3
68873;BME280;55907;50.806;12.882;2023-01-30T15:07:52;967.2;;;2.7;83.2
68873;BME280;55907;50.806;12.882;2023-01-30T15:10:59;967.2;;;2.8;83.1
68873;BME280;55907;50.806;12.882;2023-01-30T15:13:58;967.1;;;2.8;82.6
68873;BME280;55907;50.806;12.882;2023-01-30T15:17:00;967.2;;;2.8;82.5
68873;BME280;55907;50.806;12.882;2023-01-30T15:23:12;967.2;;;2.9;82.1
68873;BME280;55907;50.806;12.882;2023-01-30T15:26:09;967.3;;;2.9;81.9
68873;BME280;55907;50.806;12.882;2023-01-30T15:32:14;967.6;;;2.9;81.6
68873;BME280;55907;50.806;12.882;2023-01-30T15:35:21;967.6;;;2.9;81.4
68873;BME280;55907;50.806;12.882;2023-01-30T15:38:23;967.6;;;2.9;81.2
68873;BME280;55907;50.806;12.882;2023-01-30T15:41:08;967.6;;;2.9;81.2
68873;BME280;55907;50.806;12.882;2023-01-30T15:44:23;967.5;;;2.9;81.1
68873;BME280;55907;50.806;12.882;2023-01-30T15:47:19;967.4;;;3.0;80.6
68873;BME280;55907;50.806;12.882;2023-01-30T15:50:21;967.8;;;3.0;80.5
68873;BME280;55907;50.806;12.882;2023-01-30T15:53:14;967.7;;;3.1;80.2
68873;BME280;55907;50.806;12.882;2023-01-30T15:56:18;967.8;;;3.0;80.3
68873;BME280;55907;50.806;12.882;2023-01-30T15:59:25;967.8;;;3.1;80.0
68873;BME280;55907;50.806;12.882;2023-01-30T16:02:23;967.9;;;3.1;80.4
68873;BME280;55907;50.806;12.882;2023-01-30T16:05:21;968.0;;;3.0;80.1
68873;BME280;55907;50.806;12.882;2023-01-30T16:08:22;968.0;;;3.1;79.9
68873;BME280;55907;50.806;12.882;2023-01-30T16:11:32;968.1;;;3.2;79.3
68873;BME280;55907;50.806;12.882;2023-01-30T16:14:23;968.2;;;3.3;78.5
68873;BME280;55907;50.806;12.882;2023-01-30T16:17:26;968.4;;;3.2;78.5
68873;BME280;55907;50.806;12.882;2023-01-30T16:20:27;968.4;;;3.3;78.3
68873;BME280;55907;50.806;12.882;2023-01-30T16:23:30;968.4;;;3.2;78.3
68873;BME280;55907;50.806;12.882;2023-01-30T16:26:30;968.5;;;3.3;78.0
68873;BME280;55907;50.806;12.882;2023-01-30T16:29:34;968.4;;;3.2;78.0
68873;BME280;55907;50.806;12.882;2023-01-30T16:32:33;968.6;;;3.3;78.0
68873;BME280;55907;50.806;12.882;2023-01-30T16:35:41;968.4;;;3.2;78.1
68873;BME280;55907;50.806;12.882;2023-01-30T16:38:38;968.3;;;3.2;78.0
68873;BME280;55907;50.806;12.882;2023-01-30T16:41:39;968.5;;;3.2;78.0
68873;BME280;55907;50.806;12.882;2023-01-30T16:44:39;968.4;;;3.2;78.1
68873;BME280;55907;50.806;12.882;2023-01-30T16:47:40;968.3;;;3.2;77.9
68873;BME280;55907;50.806;12.882;2023-01-30T16:50:42;968.4;;;3.2;77.6
68873;BME280;55907;50.806;12.882;2023-01-30T16:53:47;968.6;;;3.1;77.5
68873;BME280;55907;50.806;12.882;2023-01-30T16:56:47;968.6;;;3.2;77.4
68873;BME280;55907;50.806;12.882;2023-01-30T16:59:47;968.5;;;3.2;77.4
68873;BME280;55907;50.806;12.882;2023-01-30T17:02:50;968.7;;;3.2;77.8
68873;BME280;55907;50.806;12.882;2023-01-30T17:05:50;968.7;;;3.2;77.8